sensor_id;sensor_type;location;lat;lon;timestamp;P1;durP1;ratioP1;P2;durP2;ratioP2
68523;SDS011;55524;51.380;13.372;2023-04-23T00:01:30;13.25;;;8.77;;
68523;SDS011;55524;51.380;13.372;2023-04-23T00:03:59;11.65;;;8.52;;
68523;SDS011;55524;51.380;13.372;2023-04-23T00:06:26;14.45;;;8.77;;
68523;SDS011;55524;51.380;13.372;2023-04-23T00:08:54;16.08;;;9.15;;
68523;SDS011;55524;51.380;13.372;2023-04-23T00:11:24;14.95;;;9.13;;
68523;SDS011;55524;51.380;13.372;2023-04-23T00:13:50;13.05;;;8.43;;
68523;SDS011;55524;51.380;13.372;2023-04-23T00:16:18;11.40;;;8.45;;
68523;SDS011;55524;51.380;13.372;2023-04-23T00:18:45;18.60;;;9.52;;
68523;SDS011;55524;51.380;13.372;2023-04-23T00:21:12;15.27;;;8.82;;
68523;SDS011;55524;51.380;13.372;2023-04-23T00:23:39;16.00;;;9.18;;
68523;SDS011;55524;51.380;13.372;2023-04-23T00:26:05;12.02;;;8.93;;
68523;SDS011;55524;51.380;13.372;2023-04-23T00:28:32;13.07;;;8.90;;
68523;SDS011;55524;51.380;13.372;2023-04-23T00:30:58;14.85;;;9.43;;
68523;SDS011;55524;51.380;13.372;2023-04-23T00:33:24;11.70;;;8.35;;
68523;SDS011;55524;51.380;13.372;2023-04-23T00:35:51;17.52;;;9.13;;
68523;SDS011;55524;51.380;13.372;2023-04-23T00:38:17;13.15;;;9.73;;
68523;SDS011;55524;51.380;13.372;2023-04-23T00:40:45;15.52;;;10.30;;
68523;SDS011;55524;51.380;13.372;2023-04-23T00:43:11;13.93;;;9.57;;
68523;SDS011;55524;51.380;13.372;2023-04-23T00:45:39;13.02;;;9.40;;
68523;SDS011;55524;51.380;13.372;2023-04-23T00:48:05;14.55;;;9.48;;
68523;SDS011;55524;51.380;13.372;2023-04-23T00:50:32;16.52;;;9.77;;
68523;SDS011;55524;51.380;13.372;2023-04-23T00:52:58;11.77;;;9.23;;
68523;SDS011;55524;51.380;13.372;2023-04-23T00:55:25;13.60;;;9.80;;
68523;SDS011;55524;51.380;13.372;2023-04-23T00:57:52;10.75;;;8.88;;
68523;SDS011;55524;51.380;13.372;2023-04-23T01:00:19;14.23;;;9.35;;
68523;SDS011;55524;51.380;13.372;2023-04-23T01:02:45;12.18;;;9.02;;
68523;SDS011;55524;51.380;13.372;2023-04-23T01:05:13;14.65;;;8.68;;
68523;SDS011;55524;51.380;13.372;2023-04-23T01:07:42;16.85;;;10.20;;
68523;SDS011;55524;51.380;13.372;2023-04-23T01:10:10;15.57;;;9.65;;
68523;SDS011;55524;51.380;13.372;2023-04-23T01:12:36;14.88;;;9.82;;
68523;SDS011;55524;51.380;13.372;2023-04-23T01:15:03;12.35;;;8.95;;
68523;SDS011;55524;51.380;13.372;2023-04-23T01:17:30;13.10;;;9.75;;
68523;SDS011;55524;51.380;13.372;2023-04-23T01:19:58;17.08;;;10.18;;
68523;SDS011;55524;51.380;13.372;2023-04-23T01:22:24;11.43;;;9.32;;
68523;SDS011;55524;51.380;13.372;2023-04-23T01:24:51;13.32;;;9.35;;
68523;SDS011;55524;51.380;13.372;2023-04-23T01:27:17;14.05;;;10.13;;
68523;SDS011;55524;51.380;13.372;2023-04-23T01:29:44;12.07;;;9.65;;
68523;SDS011;55524;51.380;13.372;2023-04-23T01:32:12;12.60;;;9.48;;
68523;SDS011;55524;51.380;13.372;2023-04-23T01:34:39;19.08;;;10.00;;
68523;SDS011;55524;51.380;13.372;2023-04-23T01:37:06;15.05;;;8.90;;
68523;SDS011;55524;51.380;13.372;2023-04-23T01:39:33;11.35;;;8.68;;
68523;SDS011;55524;51.380;13.372;2023-04-23T01:42:01;14.35;;;8.65;;
68523;SDS011;55524;51.380;13.372;2023-04-23T01:44:28;10.60;;;8.27;;
68523;SDS011;55524;51.380;13.372;2023-04-23T01:46:54;9.57;;;8.45;;
68523;SDS011;55524;51.380;13.372;2023-04-23T01:49:21;11.43;;;8.50;;
68523;SDS011;55524;51.380;13.372;2023-04-23T01:51:48;14.35;;;8.82;;
68523;SDS011;55524;51.380;13.372;2023-04-23T01:54:14;14.15;;;9.50;;
68523;SDS011;55524;51.380;13.372;2023-04-23T01:56:40;12.43;;;9.23;;
68523;SDS011;55524;51.380;13.372;2023-04-23T01:59:07;12.82;;;9.35;;
68523;SDS011;55524;51.380;13.372;2023-04-23T02:01:45;10.48;;;9.00;;
68523;SDS011;55524;51.380;13.372;2023-04-23T02:04:12;13.18;;;9.02;;
68523;SDS011;55524;51.380;13.372;2023-04-23T02:06:41;15.93;;;9.77;;
68523;SDS011;55524;51.380;13.372;2023-04-23T02:09:08;10.45;;;8.70;;
68523;SDS011;55524;51.380;13.372;2023-04-23T02:11:35;13.25;;;9.02;;
68523;SDS011;55524;51.380;13.372;2023-04-23T02:14:02;12.07;;;8.85;;
68523;SDS011;55524;51.380;13.372;2023-04-23T02:16:29;11.43;;;9.13;;
68523;SDS011;55524;51.380;13.372;2023-04-23T02:18:56;12.95;;;8.98;;
68523;SDS011;55524;51.380;13.372;2023-04-23T02:21:23;13.73;;;9.50;;
68523;SDS011;55524;51.380;13.372;2023-04-23T02:23:50;13.82;;;8.80;;
68523;SDS011;55524;51.380;13.372;2023-04-23T02:26:17;13.70;;;8.25;;
68523;SDS011;55524;51.380;13.372;2023-04-23T02:28:43;15.43;;;9.50;;
68523;SDS011;55524;51.380;13.372;2023-04-23T02:31:10;12.88;;;9.07;;
68523;SDS011;55524;51.380;13.372;2023-04-23T02:33:37;16.52;;;9.65;;
68523;SDS011;55524;51.380;13.372;2023-04-23T02:36:03;17.30;;;10.38;;
68523;SDS011;55524;51.380;13.372;2023-04-23T02:38:30;22.77;;;10.35;;
68523;SDS011;55524;51.380;13.372;2023-04-23T02:40:56;18.40;;;10.43;;
68523;SDS011;55524;51.380;13.372;2023-04-23T02:43:22;16.33;;;8.48;;
68523;SDS011;55524;51.380;13.372;2023-04-23T02:45:48;12.00;;;8.50;;
68523;SDS011;55524;51.380;13.372;2023-04-23T02:48:15;11.45;;;7.40;;
68523;SDS011;55524;51.380;13.372;2023-04-23T02:50:42;11.77;;;7.45;;
68523;SDS011;55524;51.380;13.372;2023-04-23T02:53:08;14.02;;;7.57;;
68523;SDS011;55524;51.380;13.372;2023-04-23T02:55:35;13.20;;;7.75;;
68523;SDS011;55524;51.380;13.372;2023-04-23T02:58:01;7.80;;;6.80;;
68523;SDS011;55524;51.380;13.372;2023-04-23T03:00:27;9.40;;;7.00;;
68523;SDS011;55524;51.380;13.372;2023-04-23T03:02:53;10.40;;;7.70;;
68523;SDS011;55524;51.380;13.372;2023-04-23T03:05:20;9.85;;;7.35;;
68523;SDS011;55524;51.380;13.372;2023-04-23T03:07:46;8.88;;;7.40;;
68523;SDS011;55524;51.380;13.372;2023-04-23T03:10:12;9.18;;;6.63;;
68523;SDS011;55524;51.380;13.372;2023-04-23T03:12:39;14.30;;;7.53;;
68523;SDS011;55524;51.380;13.372;2023-04-23T03:15:05;12.57;;;7.75;;
68523;SDS011;55524;51.380;13.372;2023-04-23T03:17:32;10.13;;;8.00;;
68523;SDS011;55524;51.380;13.372;2023-04-23T03:19:58;14.52;;;8.00;;
68523;SDS011;55524;51.380;13.372;2023-04-23T03:22:24;10.05;;;7.35;;
68523;SDS011;55524;51.380;13.372;2023-04-23T03:24:51;15.52;;;7.72;;
68523;SDS011;55524;51.380;13.372;2023-04-23T03:27:17;11.20;;;8.00;;
68523;SDS011;55524;51.380;13.372;2023-04-23T03:29:43;13.85;;;7.28;;
68523;SDS011;55524;51.380;13.372;2023-04-23T03:32:10;12.02;;;6.72;;
68523;SDS011;55524;51.380;13.372;2023-04-23T03:34:36;9.38;;;6.78;;
68523;SDS011;55524;51.380;13.372;2023-04-23T03:37:02;11.60;;;7.43;;
68523;SDS011;55524;51.380;13.372;2023-04-23T03:39:29;13.25;;;6.65;;
68523;SDS011;55524;51.380;13.372;2023-04-23T03:41:55;12.02;;;6.80;;
68523;SDS011;55524;51.380;13.372;2023-04-23T03:44:22;8.85;;;6.60;;
68523;SDS011;55524;51.380;13.372;2023-04-23T03:46:48;10.57;;;6.50;;
68523;SDS011;55524;51.380;13.372;2023-04-23T03:49:16;10.93;;;6.05;;
68523;SDS011;55524;51.380;13.372;2023-04-23T03:51:42;8.88;;;6.20;;
68523;SDS011;55524;51.380;13.372;2023-04-23T03:54:08;10.18;;;6.40;;
68523;SDS011;55524;51.380;13.372;2023-04-23T03:56:35;10.05;;;6.78;;
68523;SDS011;55524;51.380;13.372;2023-04-23T03:59:01;10.75;;;6.63;;
68523;SDS011;55524;51.380;13.372;2023-04-23T04:01:27;9.57;;;6.82;;
68523;SDS011;55524;51.380;13.372;2023-04-23T04:03:54;12.98;;;7.60;;
68523;SDS011;55524;51.380;13.372;2023-04-23T04:06:20;11.88;;;7.53;;
68523;SDS011;55524;51.380;13.372;2023-04-23T04:08:46;9.70;;;7.10;;
68523;SDS011;55524;51.380;13.372;2023-04-23T04:11:12;10.20;;;7.75;;
68523;SDS011;55524;51.380;13.372;2023-04-23T04:13:39;10.18;;;7.88;;
68523;SDS011;55524;51.380;13.372;2023-04-23T04:16:05;9.48;;;7.30;;
68523;SDS011;55524;51.380;13.372;2023-04-23T04:18:31;11.43;;;6.47;;
68523;SDS011;55524;51.380;13.372;2023-04-23T04:20:57;9.38;;;7.15;;
68523;SDS011;55524;51.380;13.372;2023-04-23T04:23:24;12.43;;;7.00;;
68523;SDS011;55524;51.380;13.372;2023-04-23T04:25:50;9.30;;;6.53;;
68523;SDS011;55524;51.380;13.372;2023-04-23T04:28:20;11.18;;;7.07;;
68523;SDS011;55524;51.380;13.372;2023-04-23T04:30:46;16.45;;;8.00;;
68523;SDS011;55524;51.380;13.372;2023-04-23T04:33:14;8.43;;;7.20;;
68523;SDS011;55524;51.380;13.372;2023-04-23T04:35:40;13.75;;;7.45;;
68523;SDS011;55524;51.380;13.372;2023-04-23T04:38:09;9.80;;;7.72;;
68523;SDS011;55524;51.380;13.372;2023-04-23T04:40:36;10.90;;;7.40;;
68523;SDS011;55524;51.380;13.372;2023-04-23T04:43:02;10.48;;;7.78;;
68523;SDS011;55524;51.380;13.372;2023-04-23T04:45:29;28.20;;;17.15;;
68523;SDS011;55524;51.380;13.372;2023-04-23T04:47:56;22.90;;;12.73;;
68523;SDS011;55524;51.380;13.372;2023-04-23T04:50:22;12.45;;;8.02;;
68523;SDS011;55524;51.380;13.372;2023-04-23T04:52:49;8.48;;;7.00;;
68523;SDS011;55524;51.380;13.372;2023-04-23T04:55:15;9.48;;;7.22;;
68523;SDS011;55524;51.380;13.372;2023-04-23T04:57:41;8.15;;;7.35;;
68523;SDS011;55524;51.380;13.372;2023-04-23T05:00:21;7.97;;;6.38;;
68523;SDS011;55524;51.380;13.372;2023-04-23T05:02:50;7.47;;;6.72;;
68523;SDS011;55524;51.380;13.372;2023-04-23T05:05:17;9.95;;;6.53;;
68523;SDS011;55524;51.380;13.372;2023-04-23T05:07:45;9.63;;;7.00;;
68523;SDS011;55524;51.380;13.372;2023-04-23T05:10:12;9.65;;;6.93;;
68523;SDS011;55524;51.380;13.372;2023-04-23T05:12:39;10.00;;;7.45;;
68523;SDS011;55524;51.380;13.372;2023-04-23T05:15:07;10.27;;;6.68;;
68523;SDS011;55524;51.380;13.372;2023-04-23T05:17:35;7.97;;;6.72;;
68523;SDS011;55524;51.380;13.372;2023-04-23T05:20:02;7.50;;;6.32;;
68523;SDS011;55524;51.380;13.372;2023-04-23T05:22:28;8.13;;;7.00;;
68523;SDS011;55524;51.380;13.372;2023-04-23T05:24:55;10.27;;;6.80;;
68523;SDS011;55524;51.380;13.372;2023-04-23T05:27:21;9.80;;;6.75;;
68523;SDS011;55524;51.380;13.372;2023-04-23T05:29:47;7.95;;;6.72;;
68523;SDS011;55524;51.380;13.372;2023-04-23T05:32:13;9.23;;;6.60;;
68523;SDS011;55524;51.380;13.372;2023-04-23T05:34:40;8.25;;;6.25;;
68523;SDS011;55524;51.380;13.372;2023-04-23T05:37:06;9.20;;;6.70;;
68523;SDS011;55524;51.380;13.372;2023-04-23T05:39:33;7.18;;;6.47;;
68523;SDS011;55524;51.380;13.372;2023-04-23T05:41:59;8.65;;;6.53;;
68523;SDS011;55524;51.380;13.372;2023-04-23T05:44:27;10.88;;;7.05;;
68523;SDS011;55524;51.380;13.372;2023-04-23T05:46:53;9.23;;;6.60;;
68523;SDS011;55524;51.380;13.372;2023-04-23T05:49:20;8.98;;;7.07;;
68523;SDS011;55524;51.380;13.372;2023-04-23T05:51:46;10.55;;;7.40;;
68523;SDS011;55524;51.380;13.372;2023-04-23T05:54:13;8.35;;;6.85;;
68523;SDS011;55524;51.380;13.372;2023-04-23T05:56:39;6.97;;;6.28;;
68523;SDS011;55524;51.380;13.372;2023-04-23T05:59:05;7.25;;;5.97;;
68523;SDS011;55524;51.380;13.372;2023-04-23T06:01:31;7.45;;;6.20;;
68523;SDS011;55524;51.380;13.372;2023-04-23T06:03:58;8.55;;;6.57;;
68523;SDS011;55524;51.380;13.372;2023-04-23T06:06:24;8.93;;;6.03;;
68523;SDS011;55524;51.380;13.372;2023-04-23T06:08:50;5.82;;;5.22;;
68523;SDS011;55524;51.380;13.372;2023-04-23T06:11:16;6.28;;;5.65;;
68523;SDS011;55524;51.380;13.372;2023-04-23T06:13:43;10.57;;;5.80;;
68523;SDS011;55524;51.380;13.372;2023-04-23T06:16:10;8.00;;;5.50;;
68523;SDS011;55524;51.380;13.372;2023-04-23T06:18:36;8.98;;;5.32;;
68523;SDS011;55524;51.380;13.372;2023-04-23T06:21:03;5.30;;;4.65;;
68523;SDS011;55524;51.380;13.372;2023-04-23T06:23:30;6.63;;;4.55;;
68523;SDS011;55524;51.380;13.372;2023-04-23T06:25:57;9.60;;;5.30;;
68523;SDS011;55524;51.380;13.372;2023-04-23T06:28:24;6.82;;;4.75;;
68523;SDS011;55524;51.380;13.372;2023-04-23T06:30:51;6.65;;;4.80;;
68523;SDS011;55524;51.380;13.372;2023-04-23T06:33:17;12.13;;;5.07;;
68523;SDS011;55524;51.380;13.372;2023-04-23T06:35:43;10.23;;;4.70;;
68523;SDS011;55524;51.380;13.372;2023-04-23T06:38:10;5.45;;;4.10;;
68523;SDS011;55524;51.380;13.372;2023-04-23T06:40:37;5.85;;;3.78;;
68523;SDS011;55524;51.380;13.372;2023-04-23T06:43:03;5.05;;;3.50;;
68523;SDS011;55524;51.380;13.372;2023-04-23T06:45:30;5.00;;;3.47;;
68523;SDS011;55524;51.380;13.372;2023-04-23T06:47:57;8.82;;;3.70;;
68523;SDS011;55524;51.380;13.372;2023-04-23T06:50:24;8.07;;;3.50;;
68523;SDS011;55524;51.380;13.372;2023-04-23T06:52:51;9.15;;;3.53;;
68523;SDS011;55524;51.380;13.372;2023-04-23T06:55:17;5.75;;;3.55;;
68523;SDS011;55524;51.380;13.372;2023-04-23T06:57:46;4.30;;;3.88;;
68523;SDS011;55524;51.380;13.372;2023-04-23T07:00:12;10.07;;;3.50;;
68523;SDS011;55524;51.380;13.372;2023-04-23T07:02:39;6.47;;;3.35;;
68523;SDS011;55524;51.380;13.372;2023-04-23T07:05:05;11.00;;;4.15;;
68523;SDS011;55524;51.380;13.372;2023-04-23T07:07:31;30.40;;;5.07;;
68523;SDS011;55524;51.380;13.372;2023-04-23T07:10:01;6.70;;;3.50;;
68523;SDS011;55524;51.380;13.372;2023-04-23T07:12:28;29.65;;;5.35;;
68523;SDS011;55524;51.380;13.372;2023-04-23T07:14:55;11.07;;;3.75;;
68523;SDS011;55524;51.380;13.372;2023-04-23T07:17:21;4.28;;;3.03;;
68523;SDS011;55524;51.380;13.372;2023-04-23T07:19:48;7.40;;;3.50;;
68523;SDS011;55524;51.380;13.372;2023-04-23T07:22:14;6.50;;;3.42;;
68523;SDS011;55524;51.380;13.372;2023-04-23T07:24:41;20.60;;;4.47;;
68523;SDS011;55524;51.380;13.372;2023-04-23T07:27:08;6.75;;;3.65;;
68523;SDS011;55524;51.380;13.372;2023-04-23T07:29:34;7.35;;;3.60;;
68523;SDS011;55524;51.380;13.372;2023-04-23T07:32:00;6.05;;;3.20;;
68523;SDS011;55524;51.380;13.372;2023-04-23T07:34:27;6.18;;;3.50;;
68523;SDS011;55524;51.380;13.372;2023-04-23T07:36:53;11.90;;;3.45;;
68523;SDS011;55524;51.380;13.372;2023-04-23T07:39:21;3.78;;;3.30;;
68523;SDS011;55524;51.380;13.372;2023-04-23T07:41:47;25.98;;;5.07;;
68523;SDS011;55524;51.380;13.372;2023-04-23T07:44:13;5.05;;;3.20;;
68523;SDS011;55524;51.380;13.372;2023-04-23T07:46:40;4.93;;;3.10;;
68523;SDS011;55524;51.380;13.372;2023-04-23T07:49:06;3.80;;;2.85;;
68523;SDS011;55524;51.380;13.372;2023-04-23T07:51:32;3.63;;;3.22;;
68523;SDS011;55524;51.380;13.372;2023-04-23T07:54:00;7.07;;;3.75;;
68523;SDS011;55524;51.380;13.372;2023-04-23T07:56:26;8.98;;;3.10;;
68523;SDS011;55524;51.380;13.372;2023-04-23T07:58:52;5.65;;;2.88;;
68523;SDS011;55524;51.380;13.372;2023-04-23T08:01:20;4.80;;;3.00;;
68523;SDS011;55524;51.380;13.372;2023-04-23T08:03:46;4.57;;;3.20;;
68523;SDS011;55524;51.380;13.372;2023-04-23T08:06:13;2.72;;;2.53;;
68523;SDS011;55524;51.380;13.372;2023-04-23T08:08:39;5.22;;;2.72;;
68523;SDS011;55524;51.380;13.372;2023-04-23T08:11:06;5.03;;;2.85;;
68523;SDS011;55524;51.380;13.372;2023-04-23T08:13:32;15.13;;;3.38;;
68523;SDS011;55524;51.380;13.372;2023-04-23T08:15:59;12.18;;;3.42;;
68523;SDS011;55524;51.380;13.372;2023-04-23T08:18:25;8.00;;;3.00;;
68523;SDS011;55524;51.380;13.372;2023-04-23T08:20:52;3.97;;;2.80;;
68523;SDS011;55524;51.380;13.372;2023-04-23T08:23:20;5.82;;;2.60;;
68523;SDS011;55524;51.380;13.372;2023-04-23T08:25:47;6.10;;;2.63;;
68523;SDS011;55524;51.380;13.372;2023-04-23T08:28:13;8.32;;;2.80;;
68523;SDS011;55524;51.380;13.372;2023-04-23T08:30:40;11.40;;;2.78;;
68523;SDS011;55524;51.380;13.372;2023-04-23T08:33:06;4.70;;;2.58;;
68523;SDS011;55524;51.380;13.372;2023-04-23T08:35:32;12.68;;;2.67;;
68523;SDS011;55524;51.380;13.372;2023-04-23T08:37:59;2.58;;;2.38;;
68523;SDS011;55524;51.380;13.372;2023-04-23T08:40:26;8.43;;;2.63;;
68523;SDS011;55524;51.380;13.372;2023-04-23T08:43:05;3.13;;;2.58;;
68523;SDS011;55524;51.380;13.372;2023-04-23T08:45:40;2.17;;;2.00;;
68523;SDS011;55524;51.380;13.372;2023-04-23T08:48:10;2.42;;;2.10;;
68523;SDS011;55524;51.380;13.372;2023-04-23T08:50:38;3.13;;;2.20;;
68523;SDS011;55524;51.380;13.372;2023-04-23T08:53:07;3.88;;;2.30;;
68523;SDS011;55524;51.380;13.372;2023-04-23T08:55:34;10.80;;;2.50;;
68523;SDS011;55524;51.380;13.372;2023-04-23T08:58:01;2.13;;;1.92;;
68523;SDS011;55524;51.380;13.372;2023-04-23T09:00:30;9.38;;;2.35;;
68523;SDS011;55524;51.380;13.372;2023-04-23T09:03:00;5.40;;;2.00;;
68523;SDS011;55524;51.380;13.372;2023-04-23T09:05:27;7.68;;;2.17;;
68523;SDS011;55524;51.380;13.372;2023-04-23T09:07:53;14.90;;;2.40;;
68523;SDS011;55524;51.380;13.372;2023-04-23T09:10:20;1.80;;;1.48;;
68523;SDS011;55524;51.380;13.372;2023-04-23T09:12:47;2.20;;;1.52;;
68523;SDS011;55524;51.380;13.372;2023-04-23T09:15:13;5.70;;;1.60;;
68523;SDS011;55524;51.380;13.372;2023-04-23T09:17:41;3.40;;;1.42;;
68523;SDS011;55524;51.380;13.372;2023-04-23T09:20:10;2.22;;;1.55;;
68523;SDS011;55524;51.380;13.372;2023-04-23T09:25:10;2.55;;;1.70;;
68523;SDS011;55524;51.380;13.372;2023-04-23T09:27:38;3.50;;;1.60;;
68523;SDS011;55524;51.380;13.372;2023-04-23T09:30:05;4.10;;;1.60;;
68523;SDS011;55524;51.380;13.372;2023-04-23T09:32:34;2.00;;;1.60;;
68523;SDS011;55524;51.380;13.372;2023-04-23T09:35:06;3.78;;;1.60;;
68523;SDS011;55524;51.380;13.372;2023-04-23T09:37:34;2.55;;;1.48;;
68523;SDS011;55524;51.380;13.372;2023-04-23T09:40:04;2.42;;;1.63;;
68523;SDS011;55524;51.380;13.372;2023-04-23T09:42:32;3.67;;;2.30;;
68523;SDS011;55524;51.380;13.372;2023-04-23T09:45:02;3.05;;;2.75;;
68523;SDS011;55524;51.380;13.372;2023-04-23T09:47:30;4.57;;;3.08;;
68523;SDS011;55524;51.380;13.372;2023-04-23T09:49:58;3.53;;;3.10;;
68523;SDS011;55524;51.380;13.372;2023-04-23T09:52:25;3.65;;;2.40;;
68523;SDS011;55524;51.380;13.372;2023-04-23T09:54:55;8.38;;;2.22;;
68523;SDS011;55524;51.380;13.372;2023-04-23T09:57:26;3.38;;;2.15;;
68523;SDS011;55524;51.380;13.372;2023-04-23T09:59:56;1.90;;;1.75;;
68523;SDS011;55524;51.380;13.372;2023-04-23T10:02:26;2.47;;;1.67;;
68523;SDS011;55524;51.380;13.372;2023-04-23T10:04:53;1.58;;;1.42;;
68523;SDS011;55524;51.380;13.372;2023-04-23T10:07:20;1.40;;;1.30;;
68523;SDS011;55524;51.380;13.372;2023-04-23T10:09:48;1.60;;;1.50;;
68523;SDS011;55524;51.380;13.372;2023-04-23T10:12:15;1.88;;;1.30;;
68523;SDS011;55524;51.380;13.372;2023-04-23T10:14:44;4.90;;;1.70;;
68523;SDS011;55524;51.380;13.372;2023-04-23T10:17:14;2.00;;;1.90;;
68523;SDS011;55524;51.380;13.372;2023-04-23T10:19:40;2.20;;;1.92;;
68523;SDS011;55524;51.380;13.372;2023-04-23T10:22:09;4.72;;;1.88;;
68523;SDS011;55524;51.380;13.372;2023-04-23T10:24:38;2.75;;;2.28;;
68523;SDS011;55524;51.380;13.372;2023-04-23T10:27:07;2.30;;;2.10;;
68523;SDS011;55524;51.380;13.372;2023-04-23T10:32:03;4.90;;;2.30;;
68523;SDS011;55524;51.380;13.372;2023-04-23T10:34:31;3.38;;;2.08;;
68523;SDS011;55524;51.380;13.372;2023-04-23T10:36:59;2.38;;;2.17;;
68523;SDS011;55524;51.380;13.372;2023-04-23T10:39:30;3.25;;;2.13;;
68523;SDS011;55524;51.380;13.372;2023-04-23T10:41:59;2.53;;;2.30;;
68523;SDS011;55524;51.380;13.372;2023-04-23T10:44:37;6.50;;;2.70;;
68523;SDS011;55524;51.380;13.372;2023-04-23T10:47:05;3.08;;;2.55;;
68523;SDS011;55524;51.380;13.372;2023-04-23T10:49:36;2.50;;;2.27;;
68523;SDS011;55524;51.380;13.372;2023-04-23T10:52:07;5.93;;;2.92;;
68523;SDS011;55524;51.380;13.372;2023-04-23T10:54:38;2.72;;;2.58;;
68523;SDS011;55524;51.380;13.372;2023-04-23T10:57:06;2.85;;;2.53;;
68523;SDS011;55524;51.380;13.372;2023-04-23T10:59:34;2.55;;;2.38;;
68523;SDS011;55524;51.380;13.372;2023-04-23T11:02:08;3.63;;;2.45;;
68523;SDS011;55524;51.380;13.372;2023-04-23T11:04:46;4.80;;;2.50;;
68523;SDS011;55524;51.380;13.372;2023-04-23T11:07:20;4.95;;;2.20;;
68523;SDS011;55524;51.380;13.372;2023-04-23T11:10:09;4.45;;;2.58;;
68523;SDS011;55524;51.380;13.372;2023-04-23T11:12:37;2.58;;;2.38;;
68523;SDS011;55524;51.380;13.372;2023-04-23T11:15:12;3.55;;;2.47;;
68523;SDS011;55524;51.380;13.372;2023-04-23T11:22:45;3.65;;;2.70;;
68523;SDS011;55524;51.380;13.372;2023-04-23T11:25:12;3.08;;;2.80;;
68523;SDS011;55524;51.380;13.372;2023-04-23T11:27:46;3.25;;;2.90;;
68523;SDS011;55524;51.380;13.372;2023-04-23T11:30:21;6.70;;;3.03;;
68523;SDS011;55524;51.380;13.372;2023-04-23T11:32:50;2.80;;;2.60;;
68523;SDS011;55524;51.380;13.372;2023-04-23T11:35:19;2.63;;;2.40;;
68523;SDS011;55524;51.380;13.372;2023-04-23T11:37:48;4.28;;;2.88;;
68523;SDS011;55524;51.380;13.372;2023-04-23T11:40:15;3.40;;;3.15;;
68523;SDS011;55524;51.380;13.372;2023-04-23T11:42:52;4.15;;;3.50;;
68523;SDS011;55524;51.380;13.372;2023-04-23T11:45:20;2.60;;;2.40;;
68523;SDS011;55524;51.380;13.372;2023-04-23T11:47:48;3.67;;;2.22;;
68523;SDS011;55524;51.380;13.372;2023-04-23T11:50:20;2.40;;;2.20;;
68523;SDS011;55524;51.380;13.372;2023-04-23T11:52:48;2.38;;;2.20;;
68523;SDS011;55524;51.380;13.372;2023-04-23T11:55:15;2.95;;;2.22;;
68523;SDS011;55524;51.380;13.372;2023-04-23T11:57:42;2.45;;;2.17;;
68523;SDS011;55524;51.380;13.372;2023-04-23T12:00:16;3.50;;;2.00;;
68523;SDS011;55524;51.380;13.372;2023-04-23T12:02:57;2.42;;;1.77;;
68523;SDS011;55524;51.380;13.372;2023-04-23T12:05:28;2.05;;;1.85;;
68523;SDS011;55524;51.380;13.372;2023-04-23T12:08:17;1.95;;;1.60;;
68523;SDS011;55524;51.380;13.372;2023-04-23T12:10:55;1.67;;;1.58;;
68523;SDS011;55524;51.380;13.372;2023-04-23T12:13:25;2.05;;;1.48;;
68523;SDS011;55524;51.380;13.372;2023-04-23T12:15:56;1.60;;;1.50;;
68523;SDS011;55524;51.380;13.372;2023-04-23T12:18:31;1.55;;;1.45;;
68523;SDS011;55524;51.380;13.372;2023-04-23T12:21:04;2.17;;;1.27;;
68523;SDS011;55524;51.380;13.372;2023-04-23T12:23:31;3.15;;;1.30;;
68523;SDS011;55524;51.380;13.372;2023-04-23T12:25:59;2.13;;;1.23;;
68523;SDS011;55524;51.380;13.372;2023-04-23T12:28:29;1.30;;;1.20;;
68523;SDS011;55524;51.380;13.372;2023-04-23T12:31:00;6.53;;;1.60;;
68523;SDS011;55524;51.380;13.372;2023-04-23T12:33:30;1.02;;;1.02;;
68523;SDS011;55524;51.380;13.372;2023-04-23T12:35:56;2.00;;;1.20;;
68523;SDS011;55524;51.380;13.372;2023-04-23T12:38:24;1.15;;;1.15;;
68523;SDS011;55524;51.380;13.372;2023-04-23T12:40:53;1.30;;;1.20;;
68523;SDS011;55524;51.380;13.372;2023-04-23T12:43:20;1.30;;;1.20;;
68523;SDS011;55524;51.380;13.372;2023-04-23T12:45:47;2.08;;;1.13;;
68523;SDS011;55524;51.380;13.372;2023-04-23T12:48:14;1.30;;;1.20;;
68523;SDS011;55524;51.380;13.372;2023-04-23T12:50:40;4.45;;;1.80;;
68523;SDS011;55524;51.380;13.372;2023-04-23T12:53:07;1.35;;;1.25;;
68523;SDS011;55524;51.380;13.372;2023-04-23T12:55:33;1.27;;;1.17;;
68523;SDS011;55524;51.380;13.372;2023-04-23T12:57:59;1.52;;;1.42;;
68523;SDS011;55524;51.380;13.372;2023-04-23T13:00:26;2.03;;;1.50;;
68523;SDS011;55524;51.380;13.372;2023-04-23T13:02:53;2.15;;;1.30;;
68523;SDS011;55524;51.380;13.372;2023-04-23T13:05:20;1.95;;;1.40;;
68523;SDS011;55524;51.380;13.372;2023-04-23T13:07:47;1.50;;;1.40;;
68523;SDS011;55524;51.380;13.372;2023-04-23T13:10:13;1.80;;;1.65;;
68523;SDS011;55524;51.380;13.372;2023-04-23T13:12:39;2.10;;;1.48;;
68523;SDS011;55524;51.380;13.372;2023-04-23T13:15:06;1.73;;;1.52;;
68523;SDS011;55524;51.380;13.372;2023-04-23T13:17:33;1.60;;;1.45;;
68523;SDS011;55524;51.380;13.372;2023-04-23T13:20:01;1.50;;;1.27;;
68523;SDS011;55524;51.380;13.372;2023-04-23T13:22:28;1.42;;;1.33;;
68523;SDS011;55524;51.380;13.372;2023-04-23T13:24:56;2.00;;;1.40;;
68523;SDS011;55524;51.380;13.372;2023-04-23T13:27:26;4.65;;;1.50;;
68523;SDS011;55524;51.380;13.372;2023-04-23T13:29:54;1.52;;;1.20;;
68523;SDS011;55524;51.380;13.372;2023-04-23T13:32:20;1.10;;;1.10;;
68523;SDS011;55524;51.380;13.372;2023-04-23T13:34:48;3.35;;;1.08;;
68523;SDS011;55524;51.380;13.372;2023-04-23T13:37:14;1.73;;;1.35;;
68523;SDS011;55524;51.380;13.372;2023-04-23T13:39:40;2.15;;;1.17;;
68523;SDS011;55524;51.380;13.372;2023-04-23T13:42:07;2.03;;;1.20;;
68523;SDS011;55524;51.380;13.372;2023-04-23T13:44:33;1.10;;;1.10;;
68523;SDS011;55524;51.380;13.372;2023-04-23T13:46:59;1.95;;;1.08;;
68523;SDS011;55524;51.380;13.372;2023-04-23T13:49:26;3.70;;;1.30;;
68523;SDS011;55524;51.380;13.372;2023-04-23T13:51:53;8.07;;;1.63;;
68523;SDS011;55524;51.380;13.372;2023-04-23T13:54:23;1.30;;;1.20;;
68523;SDS011;55524;51.380;13.372;2023-04-23T13:56:55;1.30;;;1.20;;
68523;SDS011;55524;51.380;13.372;2023-04-23T13:59:22;2.80;;;1.05;;
68523;SDS011;55524;51.380;13.372;2023-04-23T14:01:49;4.50;;;1.00;;
68523;SDS011;55524;51.380;13.372;2023-04-23T14:04:16;0.80;;;0.80;;
68523;SDS011;55524;51.380;13.372;2023-04-23T14:06:43;1.00;;;0.90;;
68523;SDS011;55524;51.380;13.372;2023-04-23T14:09:09;2.05;;;1.30;;
68523;SDS011;55524;51.380;13.372;2023-04-23T14:11:36;4.57;;;1.20;;
68523;SDS011;55524;51.380;13.372;2023-04-23T14:14:04;1.17;;;1.00;;
68523;SDS011;55524;51.380;13.372;2023-04-23T14:16:31;0.85;;;0.85;;
68523;SDS011;55524;51.380;13.372;2023-04-23T14:18:58;1.65;;;0.85;;
68523;SDS011;55524;51.380;13.372;2023-04-23T14:21:24;1.17;;;1.10;;
68523;SDS011;55524;51.380;13.372;2023-04-23T14:23:54;1.20;;;1.10;;
68523;SDS011;55524;51.380;13.372;2023-04-23T14:29:18;1.13;;;1.02;;
68523;SDS011;55524;51.380;13.372;2023-04-23T14:31:56;0.90;;;0.90;;
68523;SDS011;55524;51.380;13.372;2023-04-23T14:34:23;1.25;;;1.15;;
68523;SDS011;55524;51.380;13.372;2023-04-23T14:36:49;2.80;;;1.08;;
68523;SDS011;55524;51.380;13.372;2023-04-23T14:39:17;1.77;;;0.90;;
68523;SDS011;55524;51.380;13.372;2023-04-23T14:41:43;1.02;;;0.98;;
68523;SDS011;55524;51.380;13.372;2023-04-23T14:44:09;1.00;;;0.90;;